Atlantic Beach, FL (32233)

5:25 AM EST on January 17, 2017 (GMT -0500)
Leeward Landing @ Neptune Beach | | Change Station
Active Advisory: Dense Fog Advisory

Elev 18 ft 30.32 °N, 81.41 °W | Updated 4 seconds ago

Mostly Cloudy
Mostly Cloudy
56.5 °F
Feels Like 56.5 °F
N
0.0
Wind Variable Wind from East
Gusts 0.0 mph

Today
High -- | Low -- °F
--% Chance of Precip.
Yesterday
High -- | Low -- °F
Precip. -- in
Pressure 30.23 in
Visibility 2.0 miles
Clouds Few 25000 ft
Dew Point 56 °F
Humidity 97%
Rainfall 0.00 in
Snow Depth Not available.
7:22 AM 5:49 PM
Waning Gibbous, 73% visible
SPECI KNRB 171000Z 00000KT 2SM BR FEW250 13/13 A3023 RMK AO2 T01330128
Pressure 30.23 in
Visibility 2.0 miles
Clouds Few 25000 ft
Dew Point 56 °F
Humidity 97%
Rainfall 0.00 in
Snow Depth Not available.
7:22 AM 5:49 PM
Waning Gibbous, 73% visible
SPECI KNRB 171000Z 00000KT 2SM BR FEW250 13/13 A3023 RMK AO2 T01330128

Get Your Daily Forecast Email!

Thanks for signing up!

Be on the lookout for a verification email in your inbox.

You'll start receiving the daily forecast at 8 AM.

×

10-Day Weather Forecast

Almanac

Astronomy

Jan. 17, 2017 Rise Set
Actual Time
Civil Twilight
Nautical Twilight
Astronomical Twilight
Moon
Length of Visible Light
Length of Day
Tomorrow will be .
, % of the Moon is Illuminated

Today's Extremes

State Highs State Lows

Community

WunderPhotos

Upload Photos

1,962,540 photos uploaded!

WunderBlog® & News

Nearby

Air Quality

  Air Quality AQ Index Pollutant
Not available.

Snow Depth

Station Depth Elevation

Earthquake Activity

City Distance Mag. Time & Date
Minimum magnitude displayed is 2.5.

Coastal Water Temperatures

Place Temperature

Stations

Nearby Weather Stations

Station Location Temp. Windchill Dew Point Humidity Wind Precip. Elev Updated Type
                   

Watches & Warnings

Dense Fog Advisory
Issued: 2:23 AM EST Jan. 17, 2017 – National Weather Service

... Dense fog advisory in effect until 9 am EST this morning...

The National Weather Service in Jacksonville has issued a dense
fog advisory... which is in effect until 9 am EST this morning.

* Visibility... less than one quarter mile.

* Impacts... drivers should exercise caution.

Precautionary/preparedness actions...

A dense fog advisory means visibilities will frequently be
reduced to less than one quarter mile. If driving... slow down...
use your low beam headlights... and leave plenty of distance
ahead of you.